createdAt,value
2023-03-31T00:00:54.114Z,100067.13
2023-03-31T00:03:24.026Z,100059.06
2023-03-31T00:05:56.233Z,100057.72
2023-03-31T00:08:25.441Z,100058.06
2023-03-31T00:10:52.877Z,100060.66
2023-03-31T00:13:20.343Z,100061.59
2023-03-31T00:15:47.769Z,100052.38
2023-03-31T00:18:15.542Z,100052.91
2023-03-31T00:20:42.983Z,100055.94
2023-03-31T00:23:11.053Z,100045.31
2023-03-31T00:25:42.051Z,100047.41
2023-03-31T00:28:09.519Z,100043.84
2023-03-31T00:30:37.462Z,100038.91
2023-03-31T00:33:05.187Z,100037.09
2023-03-31T00:35:32.947Z,100041.50
2023-03-31T00:38:00.400Z,100028.75
2023-03-31T00:40:27.802Z,100020.94
2023-03-31T00:42:56.596Z,100029.84
2023-03-31T00:45:30.104Z,100028.22
2023-03-31T00:48:04.245Z,100023.88
2023-03-31T00:50:36.128Z,100031.44
2023-03-31T00:53:08.492Z,100026.44
2023-03-31T00:55:41.107Z,100026.50
2023-03-31T00:58:14.313Z,100023.78
2023-03-31T01:00:42.158Z,100022.97
2023-03-31T01:03:11.287Z,100024.25
2023-03-31T01:05:47.318Z,100008.69
2023-03-31T01:08:17.061Z,100005.94
2023-03-31T01:10:48.854Z,100004.81
2023-03-31T01:13:18.624Z,100002.84
2023-03-31T01:15:46.192Z,99994.28
2023-03-31T01:18:16.249Z,99990.69
2023-03-31T01:21:06.531Z,99984.34
2023-03-31T01:23:50.384Z,99979.78
2023-03-31T01:26:48.566Z,99984.16
2023-03-31T01:29:39.371Z,99984.22
2023-03-31T01:32:36.337Z,99977.38
2023-03-31T01:35:49.053Z,99968.13
2023-03-31T01:38:43.801Z,99970.28
2023-03-31T01:41:36.875Z,99966.31
2023-03-31T01:44:13.969Z,99967.84
2023-03-31T01:46:48.068Z,99965.03
2023-03-31T01:49:21.801Z,99959.53
2023-03-31T01:51:57.471Z,99952.28
2023-03-31T01:54:35.080Z,99956.50
2023-03-31T01:57:12.850Z,99963.03
2023-03-31T01:59:50.975Z,99949.50
2023-03-31T02:02:23.249Z,99948.47
2023-03-31T02:04:57.051Z,99947.34
2023-03-31T02:07:28.574Z,99947.91
2023-03-31T02:09:59.632Z,99941.31
2023-03-31T02:12:32.435Z,99944.25
2023-03-31T02:15:04.513Z,99946.81
2023-03-31T02:17:33.951Z,99931.19
2023-03-31T02:20:07.468Z,99944.69
2023-03-31T02:22:38.805Z,99932.69
2023-03-31T02:25:11.625Z,99930.44
2023-03-31T02:27:43.155Z,99935.66
2023-03-31T02:30:12.917Z,99924.28
2023-03-31T02:32:42.232Z,99921.56
2023-03-31T02:35:13.356Z,99927.47
2023-03-31T02:37:42.021Z,99925.19
2023-03-31T02:40:13.464Z,99921.19
2023-03-31T02:42:43.037Z,99912.16
2023-03-31T02:45:38.144Z,99907.09
2023-03-31T02:48:07.049Z,99905.03
2023-03-31T02:50:46.458Z,99910.78
2023-03-31T02:53:21.225Z,99902.94
2023-03-31T02:56:02.161Z,99906.50
2023-03-31T02:58:49.866Z,99905.34
2023-03-31T03:01:32.307Z,99904.38
2023-03-31T03:04:11.867Z,99890.72
2023-03-31T03:06:45.892Z,99890.31
2023-03-31T03:09:29.845Z,99889.56
2023-03-31T03:12:08.901Z,99895.75
2023-03-31T03:14:45.628Z,99887.00
2023-03-31T03:17:19.146Z,99885.88
2023-03-31T03:19:52.376Z,99878.84
2023-03-31T03:22:19.786Z,99884.22
2023-03-31T03:24:47.233Z,99878.53
2023-03-31T03:27:14.686Z,99874.69
2023-03-31T03:29:44.068Z,99875.13
2023-03-31T03:32:12.176Z,99867.88
2023-03-31T03:34:39.938Z,99860.97
2023-03-31T03:37:07.805Z,99864.78
2023-03-31T03:39:35.280Z,99861.19
2023-03-31T03:42:02.691Z,99861.22
2023-03-31T03:44:30.185Z,99856.50
2023-03-31T03:46:58.940Z,99849.69
2023-03-31T03:49:26.355Z,99850.78
2023-03-31T03:51:53.774Z,99856.25
2023-03-31T03:54:21.208Z,99848.69
2023-03-31T03:56:48.710Z,99848.22
2023-03-31T03:59:16.332Z,99839.69
2023-03-31T04:01:43.782Z,99833.19
2023-03-31T04:04:12.529Z,99827.06
2023-03-31T04:06:39.938Z,99830.69
2023-03-31T04:09:07.358Z,99824.06
2023-03-31T04:11:35.178Z,99819.56
2023-03-31T04:14:02.632Z,99821.41
2023-03-31T04:16:30.755Z,99829.25
2023-03-31T04:18:59.029Z,99823.44
2023-03-31T04:21:27.809Z,99821.44
2023-03-31T04:24:01.626Z,99819.06
2023-03-31T04:26:38.900Z,99817.41
2023-03-31T04:29:07.465Z,99805.00
2023-03-31T04:31:38.585Z,99808.34
2023-03-31T04:34:13.323Z,99797.63
2023-03-31T04:36:46.989Z,99798.25
2023-03-31T04:39:15.222Z,99797.09
2023-03-31T04:41:42.835Z,99794.69
2023-03-31T04:44:10.277Z,99791.63
2023-03-31T04:46:37.727Z,99785.06
2023-03-31T04:49:05.925Z,99783.13
2023-03-31T04:51:33.488Z,99783.66
2023-03-31T04:54:02.245Z,99778.84
2023-03-31T04:56:29.669Z,99774.69
2023-03-31T04:58:57.093Z,99774.81
2023-03-31T05:01:24.649Z,99768.97
2023-03-31T05:03:52.061Z,99765.53
2023-03-31T05:06:19.870Z,99767.34
2023-03-31T05:08:47.313Z,99763.13
2023-03-31T05:11:16.094Z,99757.66
2023-03-31T05:13:43.550Z,99748.41
2023-03-31T05:16:14.360Z,99745.81
2023-03-31T05:18:42.436Z,99742.44
2023-03-31T05:21:14.314Z,99740.41
2023-03-31T05:23:42.522Z,99742.06
2023-03-31T05:26:11.095Z,99738.81
2023-03-31T05:28:40.396Z,99731.19
2023-03-31T05:31:08.883Z,99732.94
2023-03-31T05:33:40.141Z,99733.47
2023-03-31T05:36:09.646Z,99718.31
2023-03-31T05:38:37.513Z,99714.25
2023-03-31T05:41:05.005Z,99715.09
2023-03-31T05:43:32.401Z,99715.47
2023-03-31T05:46:01.165Z,99715.59
2023-03-31T05:48:29.050Z,99706.97
2023-03-31T05:50:57.999Z,99700.59
2023-03-31T05:53:25.583Z,99699.66
2023-03-31T05:55:58.440Z,99697.53
2023-03-31T05:58:26.120Z,99692.50
2023-03-31T06:01:06.037Z,99698.06
2023-03-31T06:03:34.477Z,99701.63
2023-03-31T06:06:02.870Z,99690.56
2023-03-31T06:08:30.817Z,99689.88
2023-03-31T06:10:58.753Z,99688.84
2023-03-31T06:13:26.206Z,99680.75
2023-03-31T06:15:55.324Z,99685.84
2023-03-31T06:18:24.749Z,99678.50
2023-03-31T06:20:52.308Z,99672.06
2023-03-31T06:23:19.691Z,99671.19
2023-03-31T06:25:51.468Z,99665.19
2023-03-31T06:28:19.397Z,99659.91
2023-03-31T06:30:46.839Z,99657.53
2023-03-31T06:33:14.902Z,99663.00
2023-03-31T06:35:43.646Z,99660.44
2023-03-31T06:38:11.179Z,99654.22
2023-03-31T06:40:38.598Z,99657.94
2023-03-31T06:43:06.075Z,99656.06
2023-03-31T06:45:33.559Z,99662.59
2023-03-31T06:48:01.304Z,99655.03
2023-03-31T06:50:28.768Z,99657.72
2023-03-31T06:52:57.486Z,99643.94
2023-03-31T06:55:24.999Z,99645.72
2023-03-31T06:57:52.475Z,99644.75
2023-03-31T07:00:23.035Z,99634.09
2023-03-31T07:02:50.993Z,99630.50
2023-03-31T07:05:18.505Z,99631.44
2023-03-31T07:07:46.584Z,99631.69
2023-03-31T07:10:15.393Z,99626.97
2023-03-31T07:12:42.869Z,99625.78
2023-03-31T07:15:11.234Z,99621.19
2023-03-31T07:17:41.940Z,99616.75
2023-03-31T07:20:13.135Z,99615.13
2023-03-31T07:22:41.563Z,99596.44
2023-03-31T07:25:10.650Z,99598.31
2023-03-31T07:27:39.944Z,99596.56
2023-03-31T07:30:08.766Z,99609.13
2023-03-31T07:32:40.077Z,99598.47
2023-03-31T07:35:08.256Z,99601.06
2023-03-31T07:37:36.466Z,99593.53
2023-03-31T07:40:05.457Z,99595.44
2023-03-31T07:42:33.213Z,99587.53
2023-03-31T07:45:01.977Z,99593.97
2023-03-31T07:47:29.901Z,99582.97
2023-03-31T07:49:57.505Z,99580.63
2023-03-31T07:52:24.992Z,99573.72
2023-03-31T07:54:52.463Z,99589.44
2023-03-31T07:57:20.281Z,99581.94
2023-03-31T07:59:48.014Z,99579.66
2023-03-31T08:02:19.217Z,99574.84
2023-03-31T08:04:48.338Z,99567.56
2023-03-31T08:07:17.466Z,99558.44
2023-03-31T08:09:46.382Z,99556.41
2023-03-31T08:12:15.398Z,99554.81
2023-03-31T08:14:43.189Z,99555.25
2023-03-31T08:17:11.509Z,99545.16
2023-03-31T08:19:40.324Z,99548.91
2023-03-31T08:22:07.785Z,99544.56
2023-03-31T08:24:35.419Z,99535.69
2023-03-31T08:27:02.832Z,99537.03
2023-03-31T08:29:30.304Z,99536.34
2023-03-31T08:31:57.843Z,99530.31
2023-03-31T08:34:25.773Z,99537.72
2023-03-31T08:36:55.257Z,99533.19
2023-03-31T08:39:22.868Z,99523.38
2023-03-31T08:41:57.840Z,99525.94
2023-03-31T08:44:31.553Z,99511.63
2023-03-31T08:47:00.848Z,99504.84
2023-03-31T08:49:32.371Z,99503.41
2023-03-31T08:52:03.503Z,99504.72
2023-03-31T08:54:34.754Z,99507.09
2023-03-31T08:57:05.115Z,99501.88
2023-03-31T08:59:34.749Z,99499.94
2023-03-31T09:02:11.754Z,99492.75
2023-03-31T09:04:51.597Z,99498.06
2023-03-31T09:07:30.819Z,99498.66
2023-03-31T09:10:07.392Z,99486.28
2023-03-31T09:12:44.540Z,99481.03
2023-03-31T09:15:16.371Z,99489.09
2023-03-31T09:17:46.781Z,99470.72
2023-03-31T09:20:19.490Z,99475.09
2023-03-31T09:22:51.685Z,99467.50
2023-03-31T09:25:22.721Z,99460.56
2023-03-31T09:27:53.143Z,99457.69
2023-03-31T09:30:25.993Z,99462.78
2023-03-31T09:32:59.445Z,99456.47
2023-03-31T09:35:27.480Z,99446.22
2023-03-31T09:37:57.112Z,99441.13
2023-03-31T09:40:26.460Z,99436.94
2023-03-31T09:42:58.961Z,99436.63
2023-03-31T09:45:26.503Z,99429.19
2023-03-31T09:47:57.436Z,99420.94
2023-03-31T09:50:26.615Z,99402.63
2023-03-31T09:52:58.800Z,99418.88
2023-03-31T09:55:40.015Z,99404.84
2023-03-31T09:58:08.891Z,99400.81
2023-03-31T10:00:37.286Z,99403.31
2023-03-31T10:03:07.711Z,99394.72
2023-03-31T10:05:37.956Z,99403.94
2023-03-31T10:08:30.253Z,99400.72
2023-03-31T10:11:08.233Z,99394.44
2023-03-31T10:13:42.631Z,99389.34
2023-03-31T10:16:14.605Z,99393.97
2023-03-31T10:18:44.861Z,99379.88
2023-03-31T10:21:22.112Z,99378.84
2023-03-31T10:23:52.038Z,99382.53
2023-03-31T10:26:22.573Z,99376.03
2023-03-31T10:28:52.995Z,99368.63
2023-03-31T10:31:21.235Z,99364.97
2023-03-31T10:33:51.018Z,99359.94
2023-03-31T10:36:23.573Z,99345.63
2023-03-31T10:38:53.899Z,99352.16
2023-03-31T10:41:24.599Z,99351.63
2023-03-31T10:43:54.078Z,99341.31
2023-03-31T10:46:22.645Z,99345.91
2023-03-31T10:48:52.286Z,99349.16
2023-03-31T10:51:21.433Z,99339.53
2023-03-31T10:53:50.709Z,99353.47
2023-03-31T10:56:39.385Z,99348.06
2023-03-31T10:59:24.586Z,99345.53
2023-03-31T11:02:14.806Z,99326.66
2023-03-31T11:04:48.959Z,99331.75
2023-03-31T11:07:29.650Z,99321.06
2023-03-31T11:10:07.323Z,99323.69
2023-03-31T11:12:44.553Z,99325.13
2023-03-31T11:15:21.687Z,99313.00
2023-03-31T11:18:04.851Z,99319.59
2023-03-31T11:20:39.407Z,99301.53
2023-03-31T11:23:17.622Z,99300.75
2023-03-31T11:25:53.626Z,99293.91
2023-03-31T11:28:38.835Z,99292.59
2023-03-31T11:31:17.936Z,99286.03
2023-03-31T11:33:58.027Z,99280.09
2023-03-31T11:36:38.550Z,99272.28
2023-03-31T11:39:21.285Z,99263.63
2023-03-31T11:41:51.697Z,99258.78
2023-03-31T11:44:23.456Z,99250.28
2023-03-31T11:46:55.388Z,99249.28
2023-03-31T11:49:27.063Z,99252.03
2023-03-31T11:51:57.801Z,99244.91
2023-03-31T11:54:31.965Z,99241.69
2023-03-31T11:57:04.234Z,99234.06
2023-03-31T11:59:33.785Z,99237.25
2023-03-31T12:02:11.289Z,99218.69
2023-03-31T12:04:43.752Z,99219.97
2023-03-31T12:07:24.740Z,99214.91
2023-03-31T12:10:05.439Z,99221.13
2023-03-31T12:12:36.404Z,99215.84
2023-03-31T12:15:15.000Z,99216.50
2023-03-31T12:17:46.542Z,99218.66
2023-03-31T12:20:22.343Z,99211.94
2023-03-31T12:22:50.602Z,99213.75
2023-03-31T12:25:26.066Z,99211.16
2023-03-31T12:27:54.871Z,99207.44
2023-03-31T12:30:31.493Z,99209.72
2023-03-31T12:33:04.091Z,99192.13
2023-03-31T12:35:42.432Z,99196.81
2023-03-31T12:38:38.172Z,99181.66
2023-03-31T12:41:15.772Z,99174.81
2023-03-31T12:43:58.112Z,99186.53
2023-03-31T12:46:39.760Z,99178.50
2023-03-31T12:49:23.793Z,99171.25
2023-03-31T12:52:05.863Z,99171.19
2023-03-31T12:55:09.481Z,99170.41
2023-03-31T12:57:37.323Z,99185.19
2023-03-31T13:00:21.966Z,99188.50
2023-03-31T13:02:52.246Z,99198.03
2023-03-31T13:05:47.308Z,99191.09
2023-03-31T13:08:48.166Z,99194.44
2023-03-31T13:11:16.382Z,99186.91
2023-03-31T13:13:59.837Z,99185.03
2023-03-31T13:16:36.532Z,99182.44
2023-03-31T13:19:05.909Z,99180.22
2023-03-31T13:21:53.833Z,99182.88
2023-03-31T13:24:23.186Z,99172.28
2023-03-31T13:26:53.413Z,99178.81
2023-03-31T13:29:24.628Z,99174.28
2023-03-31T13:32:18.340Z,99176.41
2023-03-31T13:34:55.313Z,99167.44
2023-03-31T13:37:38.691Z,99175.44
2023-03-31T13:40:18.924Z,99177.44
2023-03-31T13:43:13.549Z,99176.03
2023-03-31T13:45:55.394Z,99169.00
2023-03-31T13:48:37.900Z,99170.25
2023-03-31T13:51:27.384Z,99172.78
2023-03-31T13:54:13.263Z,99160.38
2023-03-31T13:56:55.887Z,99161.19
2023-03-31T13:59:33.388Z,99172.59
2023-03-31T14:02:22.861Z,99172.47
2023-03-31T14:05:22.202Z,99168.28
2023-03-31T14:07:56.979Z,99174.09
2023-03-31T14:10:28.867Z,99171.00
2023-03-31T14:13:11.909Z,99180.41
2023-03-31T14:15:43.837Z,99175.75
2023-03-31T14:18:14.765Z,99184.22
2023-03-31T14:20:51.982Z,99172.13
2023-03-31T14:23:32.005Z,99176.41
2023-03-31T14:26:06.159Z,99181.25
2023-03-31T14:28:52.550Z,99175.34
2023-03-31T14:31:25.420Z,99175.34
2023-03-31T14:34:14.513Z,99174.75
2023-03-31T14:36:49.221Z,99173.56
2023-03-31T14:39:22.990Z,99170.38
2023-03-31T14:41:53.176Z,99169.00
2023-03-31T14:44:21.142Z,99171.22
2023-03-31T14:46:48.778Z,99161.03
2023-03-31T14:49:21.512Z,99159.00
2023-03-31T14:51:49.444Z,99155.66
2023-03-31T14:54:19.914Z,99153.03
2023-03-31T14:56:50.535Z,99165.41
2023-03-31T14:59:21.853Z,99149.75
2023-03-31T15:01:50.931Z,99148.88
2023-03-31T15:04:28.764Z,99147.53
2023-03-31T15:07:07.300Z,99148.63
2023-03-31T15:09:36.730Z,99153.91
2023-03-31T15:12:08.329Z,99152.78
2023-03-31T15:14:39.565Z,99147.59
2023-03-31T15:17:07.030Z,99145.19
2023-03-31T15:19:36.211Z,99150.81
2023-03-31T15:22:11.396Z,99153.91
2023-03-31T15:24:40.185Z,99146.34
2023-03-31T15:27:13.770Z,99153.00
2023-03-31T15:29:46.060Z,99149.66
2023-03-31T15:32:17.374Z,99158.16
2023-03-31T15:34:46.478Z,99146.66
2023-03-31T15:37:14.152Z,99153.53
2023-03-31T15:39:48.777Z,99148.13
2023-03-31T15:42:16.264Z,99145.50
2023-03-31T15:44:46.754Z,99152.13
2023-03-31T15:47:18.827Z,99144.16
2023-03-31T15:49:52.685Z,99144.88
2023-03-31T15:52:30.222Z,99146.25
2023-03-31T15:54:59.159Z,99135.28
2023-03-31T15:57:34.246Z,99136.03
2023-03-31T16:00:02.492Z,99134.75
2023-03-31T16:02:41.726Z,99130.53
2023-03-31T16:08:17.972Z,99132.78
2023-03-31T16:10:47.128Z,99132.22
2023-03-31T16:13:23.112Z,99132.19
2023-03-31T16:15:55.121Z,99141.16
2023-03-31T16:18:29.561Z,99140.97
2023-03-31T16:21:00.750Z,99136.44
2023-03-31T16:23:31.997Z,99127.41
2023-03-31T16:26:01.733Z,99129.53
2023-03-31T16:28:31.690Z,99135.69
2023-03-31T16:31:01.871Z,99132.19
2023-03-31T16:33:31.360Z,99122.88
2023-03-31T16:35:59.240Z,99132.28
2023-03-31T16:38:30.021Z,99130.03
2023-03-31T16:41:00.402Z,99130.03
2023-03-31T16:43:30.657Z,99133.13
2023-03-31T16:46:00.449Z,99138.69
2023-03-31T16:48:30.101Z,99143.53
2023-03-31T16:50:59.947Z,99137.81
2023-03-31T16:53:29.597Z,99136.63
2023-03-31T16:55:57.635Z,99152.06
2023-03-31T16:58:26.201Z,99137.25
2023-03-31T17:00:55.603Z,99132.84
2023-03-31T17:03:23.887Z,99131.91
2023-03-31T17:05:55.127Z,99140.97
2023-03-31T17:08:27.498Z,99138.50
2023-03-31T17:10:58.090Z,99144.84
2023-03-31T17:13:25.531Z,99138.59
2023-03-31T17:16:01.364Z,99142.28
2023-03-31T17:18:37.337Z,99145.41
2023-03-31T17:21:07.582Z,99140.81
2023-03-31T17:23:36.224Z,99148.00
2023-03-31T17:26:04.578Z,99137.81
2023-03-31T17:28:32.182Z,99141.81
2023-03-31T17:31:00.005Z,99136.41
2023-03-31T17:33:27.915Z,99146.81
2023-03-31T17:35:58.694Z,99143.13
2023-03-31T17:38:26.405Z,99140.69
2023-03-31T17:40:54.564Z,99145.72
2023-03-31T17:43:22.107Z,99142.72
2023-03-31T17:45:49.592Z,99140.41
2023-03-31T17:48:17.395Z,99146.78
2023-03-31T17:50:45.083Z,99143.41
2023-03-31T17:53:13.990Z,99143.50
2023-03-31T17:55:41.423Z,99150.94
2023-03-31T17:58:13.515Z,99146.22
2023-03-31T18:00:41.805Z,99141.63
2023-03-31T18:03:09.245Z,99146.03
2023-03-31T18:05:39.111Z,99162.22
2023-03-31T18:08:07.182Z,99150.56
2023-03-31T18:10:37.884Z,99144.81
2023-03-31T18:13:06.514Z,99151.00
2023-03-31T18:15:33.909Z,99149.03
2023-03-31T18:18:01.558Z,99148.16
2023-03-31T18:20:29.145Z,99152.47
2023-03-31T18:22:56.629Z,99153.56
2023-03-31T18:25:24.245Z,99147.72
2023-03-31T18:27:53.189Z,99154.44
2023-03-31T18:30:20.908Z,99157.06
2023-03-31T18:32:48.397Z,99148.97
2023-03-31T18:35:16.604Z,99147.53
2023-03-31T18:37:44.280Z,99148.38
2023-03-31T18:40:14.817Z,99148.56
2023-03-31T18:42:42.419Z,99148.47
2023-03-31T18:45:12.522Z,99154.81
2023-03-31T18:47:40.099Z,99166.88
2023-03-31T18:50:09.333Z,99152.47
2023-03-31T18:52:37.180Z,99152.19
2023-03-31T18:55:05.056Z,99157.53
2023-03-31T18:57:32.551Z,99157.53
2023-03-31T19:00:01.707Z,99154.59
2023-03-31T19:02:30.577Z,99159.47
2023-03-31T19:04:58.123Z,99158.47
2023-03-31T19:07:25.655Z,99164.06
2023-03-31T19:09:53.129Z,99159.94
2023-03-31T19:12:22.304Z,99161.03
2023-03-31T19:14:49.844Z,99158.66
2023-03-31T19:17:19.764Z,99166.88
2023-03-31T19:19:48.773Z,99166.75
2023-03-31T19:22:16.273Z,99167.72
2023-03-31T19:24:45.002Z,99171.13
2023-03-31T19:27:13.311Z,99171.91
2023-03-31T19:29:41.012Z,99173.44
2023-03-31T19:32:08.868Z,99172.97
2023-03-31T19:34:36.452Z,99175.63
2023-03-31T19:37:05.229Z,99170.66
2023-03-31T19:39:32.713Z,99171.09
2023-03-31T19:42:00.336Z,99167.56
2023-03-31T19:44:27.742Z,99165.47
2023-03-31T19:46:55.330Z,99173.13
2023-03-31T19:49:22.815Z,99164.94
2023-03-31T19:51:50.402Z,99164.09
2023-03-31T19:54:19.186Z,99167.72
2023-03-31T19:56:47.712Z,99159.59
2023-03-31T19:59:15.200Z,99169.44
2023-03-31T20:01:42.783Z,99175.44
2023-03-31T20:04:12.174Z,99164.06
2023-03-31T20:06:41.111Z,99163.94
2023-03-31T20:09:09.555Z,99160.22
2023-03-31T20:11:40.170Z,99165.69
2023-03-31T20:14:08.188Z,99166.34
2023-03-31T20:16:35.817Z,99166.56
2023-03-31T20:19:06.286Z,99169.16
2023-03-31T20:21:37.608Z,99166.75
2023-03-31T20:24:06.475Z,99161.66
2023-03-31T20:26:35.427Z,99162.72
2023-03-31T20:29:04.630Z,99160.84
2023-03-31T20:31:36.260Z,99161.22
2023-03-31T20:34:04.185Z,99167.25
2023-03-31T20:36:32.164Z,99168.78
2023-03-31T20:39:02.997Z,99166.63
2023-03-31T20:41:31.093Z,99167.81
2023-03-31T20:43:58.905Z,99173.63
2023-03-31T20:46:28.671Z,99169.09
2023-03-31T20:48:58.103Z,99163.00
2023-03-31T20:51:27.764Z,99160.91
2023-03-31T20:53:56.734Z,99166.53
2023-03-31T20:56:26.080Z,99160.72
2023-03-31T20:58:54.980Z,99160.88
2023-03-31T21:01:23.621Z,99159.50
2023-03-31T21:03:53.352Z,99158.56
2023-03-31T21:06:21.625Z,99162.00
2023-03-31T21:08:53.200Z,99166.13
2023-03-31T21:11:22.585Z,99176.28
2023-03-31T21:13:50.648Z,99175.09
2023-03-31T21:16:18.348Z,99180.94
2023-03-31T21:18:46.267Z,99177.41
2023-03-31T21:21:18.884Z,99187.28
2023-03-31T21:23:46.853Z,99189.84
2023-03-31T21:26:16.305Z,99183.56
2023-03-31T21:28:44.784Z,99184.19
2023-03-31T21:31:13.698Z,99187.06
2023-03-31T21:33:42.862Z,99185.38
2023-03-31T21:36:13.276Z,99178.56
2023-03-31T21:38:42.560Z,99180.13
2023-03-31T21:41:12.117Z,99179.41
2023-03-31T21:43:39.626Z,99183.06
2023-03-31T21:46:08.354Z,99184.19
2023-03-31T21:48:37.111Z,99186.94
2023-03-31T21:51:04.865Z,99192.91
2023-03-31T21:53:32.672Z,99196.91
2023-03-31T21:56:01.547Z,99198.50
2023-03-31T21:58:30.136Z,99197.19
2023-03-31T22:00:58.987Z,99196.31
2023-03-31T22:03:29.008Z,99192.56
2023-03-31T22:05:57.018Z,99193.34
2023-03-31T22:08:26.911Z,99190.16
2023-03-31T22:10:55.559Z,99191.16
2023-03-31T22:13:25.534Z,99189.38
2023-03-31T22:15:53.652Z,99182.53
2023-03-31T22:18:21.929Z,99180.53
2023-03-31T22:20:50.407Z,99182.78
2023-03-31T22:23:20.501Z,99191.47
2023-03-31T22:25:48.346Z,99191.16
2023-03-31T22:28:16.863Z,99200.00
2023-03-31T22:30:45.826Z,99191.31
2023-03-31T22:33:13.319Z,99189.56
2023-03-31T22:35:40.807Z,99203.81
2023-03-31T22:38:08.737Z,99195.56
2023-03-31T22:40:36.538Z,99198.13
2023-03-31T22:43:04.838Z,99202.59
2023-03-31T22:45:32.533Z,99209.03
2023-03-31T22:48:01.425Z,99207.81
2023-03-31T22:50:30.539Z,99207.31
2023-03-31T22:52:58.072Z,99215.00
2023-03-31T22:55:25.655Z,99216.16
2023-03-31T22:57:53.067Z,99221.13
2023-03-31T23:00:20.843Z,99224.91
2023-03-31T23:02:48.347Z,99224.44
2023-03-31T23:05:17.607Z,99219.38
2023-03-31T23:07:45.065Z,99214.53
2023-03-31T23:10:12.572Z,99215.53
2023-03-31T23:12:40.178Z,99221.66
2023-03-31T23:15:08.367Z,99224.16
2023-03-31T23:17:35.826Z,99223.19
2023-03-31T23:20:04.044Z,99218.13
2023-03-31T23:22:32.863Z,99213.78
2023-03-31T23:25:00.316Z,99224.44
2023-03-31T23:27:27.836Z,99227.88
2023-03-31T23:29:55.498Z,99232.81
2023-03-31T23:32:22.972Z,99222.03
2023-03-31T23:34:50.705Z,99224.41
2023-03-31T23:37:18.960Z,99223.28
2023-03-31T23:39:47.840Z,99219.97
2023-03-31T23:42:19.669Z,99224.56
2023-03-31T23:44:47.557Z,99217.63
2023-03-31T23:47:15.002Z,99214.78
2023-03-31T23:49:42.454Z,99220.41
2023-03-31T23:52:09.905Z,99216.00
2023-03-31T23:54:37.549Z,99231.44
2023-03-31T23:57:06.431Z,99222.13
2023-03-31T23:59:34.000Z,99224.63
